Terminal Aerodrome Forecast
Issued by NWS Charleston, WV

Current Version | Previous Version | Graphics & Text | Print | Product List | Glossary On
Versions: 1 2 3 4 5 6 7 8 9 10 11 12 13 14 15 16 17 18 19 20 21 22 23 24
000
FTUS41 KRLX 211100
TAFEKN
TAF
KEKN 211120Z 2112/2212 30007KT P6SM SCT029 OVC040
     FM211700 29005KT P6SM BKN025
     FM212000 28004KT P6SM SCT030
     FM212300 00000KT P6SM FEW100=

USA.gov is the U.S. government's official web portal to all federal, state and local government web resources and services.